Ghadamis, Libya
Current Conditions -  °F | °C
As of 2:00 AM on Thursday 27 Nov 2014 (Local Time) from DAUZ Reporting Station
Clear Clear  
Wind Chill: 14°   Ceiling: Unl
Heat Index: 14°   Visibility: 6mi
Dew Point: -6°   Wind: 7mph
Humidity: 25%   Direction: 60°ENE
Pressure: 29.91"   Gusts: NA
Location:  30.13°N, 9.5°E
Report Text: DAUZ 262300Z 06006KT CAVOK 14/M06 Q1013
Loading
Personal Weather Stations






























Interactive Weather Map New forecast layout! Learn more

10-Day Weather Forecast

Advertisements
Track Severe Weather on mobile